Terminal Aerodrome Forecast
Issued by NWS

Home | Current Version | Previous Version | Text Only | Print | Product List | Glossary On
Versions: 1 2 3 4 5 6 7 8 9 10 11 12 13 14 15 16 17 18 19 20 21 22 23 24 25 26 27 28 29 30 31 32 33 34 35 36 37 38 39 40 41 42 43 44 45
000
FTUS45 KGJT 261740
TAFEGE
TAF
KEGE 261740Z 2618/2718 00000KT P6SM FEW250
     FM262100 24008KT P6SM FEW200
     FM270200 02004KT P6SM FEW140
     FM271000 07004KT P6SM VCSH BKN070
     FM271200 VRB03KT P6SM -SN BKN045 OVC100
     FM271600 24013G25KT P6SM -SN OVC050=

USA.gov is the U.S. government's official web portal to all federal, state and local government web resources and services.